createdAt,value
2024-03-29T09:06:04.192Z,12.41
2024-03-29T09:07:02.988Z,12.46
2024-03-29T09:08:03.102Z,12.5
2024-03-29T09:09:03.247Z,12.56
2024-03-29T09:10:03.339Z,12.6
2024-03-29T09:11:03.482Z,12.64
2024-03-29T09:12:03.598Z,12.71
2024-03-29T09:13:03.708Z,12.79
2024-03-29T09:14:06.075Z,12.86
2024-03-29T09:15:01.275Z,12.93
2024-03-29T09:16:01.401Z,13.03
2024-03-29T09:17:03.196Z,13.12
2024-03-29T09:18:03.264Z,13.2
2024-03-29T09:19:03.385Z,13.26
2024-03-29T09:20:01.874Z,13.34
2024-03-29T09:21:01.997Z,13.39
2024-03-29T09:22:02.074Z,13.46
2024-03-29T09:23:03.863Z,13.5
2024-03-29T09:24:01.311Z,13.54
2024-03-29T09:25:01.431Z,13.58
2024-03-29T09:26:01.534Z,13.58
2024-03-29T09:27:01.656Z,13.6
2024-03-29T09:28:03.463Z,13.64
2024-03-29T09:29:01.914Z,13.66
2024-03-29T09:30:02.016Z,13.68
2024-03-29T09:31:02.080Z,13.68
2024-03-29T09:32:03.998Z,13.67
2024-03-29T09:33:01.357Z,13.68
2024-03-29T09:34:01.492Z,13.69
2024-03-29T09:35:03.248Z,13.69
2024-03-29T09:36:03.344Z,13.7
2024-03-29T09:37:03.464Z,13.73
2024-03-29T09:38:01.917Z,13.75
2024-03-29T09:39:02.043Z,13.74
2024-03-29T09:40:02.134Z,13.75
2024-03-29T09:41:02.916Z,13.76
2024-03-29T09:42:03.020Z,13.79
2024-03-29T09:43:06.196Z,13.83
2024-03-29T09:44:03.215Z,13.89
2024-03-29T09:45:01.696Z,13.96
2024-03-29T09:46:01.834Z,14.03
2024-03-29T09:47:01.931Z,14.09
2024-03-29T09:48:01.992Z,14.15
2024-03-29T09:49:03.734Z,14.21
2024-03-29T09:50:02.239Z,14.25
2024-03-29T09:51:03.017Z,14.32
2024-03-29T09:52:03.213Z,14.4
2024-03-29T09:53:03.187Z,14.44
2024-03-29T09:54:01.659Z,14.49
2024-03-29T09:55:03.416Z,14.56
2024-03-29T09:56:03.542Z,14.62
2024-03-29T09:57:01.993Z,14.65
2024-03-29T09:58:02.107Z,14.67
2024-03-29T09:59:03.866Z,14.68
2024-03-29T10:00:02.963Z,14.71
2024-03-29T10:01:03.011Z,14.74
2024-03-29T10:02:01.516Z,14.79
2024-03-29T10:03:03.278Z,14.83
2024-03-29T10:04:03.366Z,14.84
2024-03-29T10:05:01.823Z,14.83
2024-03-29T10:06:03.567Z,14.82
2024-03-29T10:07:03.696Z,14.73
2024-03-29T10:08:02.190Z,14.7
2024-03-29T10:09:03.894Z,14.7
2024-03-29T10:10:02.989Z,14.66
2024-03-29T10:11:01.428Z,14.64
2024-03-29T10:12:03.196Z,14.63
2024-03-29T10:13:03.265Z,14.62
2024-03-29T10:14:03.428Z,14.59
2024-03-29T10:15:03.498Z,14.62
2024-03-29T10:16:03.618Z,14.63
2024-03-29T10:17:02.071Z,14.64
2024-03-29T10:18:03.817Z,14.65
2024-03-29T10:19:03.880Z,14.64
2024-03-29T10:20:01.441Z,14.63
2024-03-29T10:21:03.090Z,14.62
2024-03-29T10:22:01.627Z,14.6
2024-03-29T10:23:03.330Z,14.6
2024-03-29T10:24:01.756Z,14.6
2024-03-29T10:25:01.896Z,14.62
2024-03-29T10:26:01.965Z,14.6
2024-03-29T10:27:02.063Z,14.59
2024-03-29T10:28:02.204Z,14.57
2024-03-29T10:29:02.955Z,14.54
2024-03-29T10:30:01.451Z,14.52
2024-03-29T10:31:01.532Z,14.51
2024-03-29T10:32:01.585Z,14.5
2024-03-29T10:33:03.796Z,14.48
2024-03-29T10:34:03.430Z,14.45
2024-03-29T10:35:01.962Z,14.44
2024-03-29T10:36:02.032Z,14.43
2024-03-29T10:37:02.144Z,14.38
2024-03-29T10:38:02.210Z,14.35
2024-03-29T10:39:02.921Z,14.32
2024-03-29T10:40:03.103Z,14.3
2024-03-29T10:41:03.238Z,14.29
2024-03-29T10:42:03.293Z,14.27
2024-03-29T10:43:03.397Z,14.27
2024-03-29T10:44:01.854Z,14.26
2024-03-29T10:45:03.606Z,14.25
2024-03-29T10:46:02.073Z,14.25
2024-03-29T10:47:03.873Z,14.25
2024-03-29T10:48:02.887Z,14.23
2024-03-29T10:49:03.043Z,14.22
2024-03-29T10:50:03.596Z,14.21
2024-03-29T10:51:01.559Z,14.2
2024-03-29T10:52:03.328Z,14.19
2024-03-29T10:53:01.778Z,14.18
2024-03-29T10:54:01.875Z,14.2
2024-03-29T10:55:01.966Z,14.17
2024-03-29T10:56:02.066Z,14.18
2024-03-29T10:57:03.815Z,14.2
2024-03-29T10:58:02.919Z,14.21
2024-03-29T10:59:03.017Z,14.2
2024-03-29T11:00:01.496Z,14.2
2024-03-29T11:01:03.205Z,14.18
2024-03-29T11:02:03.354Z,14.17
2024-03-29T11:03:03.428Z,14.17
2024-03-29T11:04:01.899Z,14.18
2024-03-29T11:05:01.993Z,14.19
2024-03-29T11:06:03.745Z,14.19
2024-03-29T11:07:03.903Z,14.15
2024-03-29T11:08:02.941Z,14.14
2024-03-29T11:09:01.386Z,14.13
2024-03-29T11:10:01.539Z,14.14
2024-03-29T11:11:01.604Z,14.14
2024-03-29T11:12:01.716Z,14.13
2024-03-29T11:13:01.823Z,14.13
2024-03-29T11:14:03.558Z,14.11
2024-03-29T11:15:02.084Z,14.1
2024-03-29T11:16:02.192Z,14.1
2024-03-29T11:17:02.253Z,14.07
2024-03-29T11:18:01.390Z,14.06
2024-03-29T11:19:03.064Z,14.04
2024-03-29T11:20:01.545Z,14.01
2024-03-29T11:21:03.303Z,13.96
2024-03-29T11:22:03.494Z,13.9
2024-03-29T11:23:01.899Z,13.88
2024-03-29T11:24:02.004Z,13.85
2024-03-29T11:25:02.081Z,13.85
2024-03-29T11:26:02.189Z,13.83
2024-03-29T11:27:01.332Z,13.84
2024-03-29T11:28:03.055Z,13.86
2024-03-29T11:29:01.544Z,13.85
2024-03-29T11:30:03.272Z,13.84
2024-03-29T11:31:01.755Z,13.83
2024-03-29T11:32:03.507Z,13.81
2024-03-29T11:33:01.946Z,13.76
2024-03-29T11:34:02.037Z,13.71
2024-03-29T11:35:03.790Z,13.68
2024-03-29T11:36:01.303Z,13.65
2024-03-29T11:37:03.036Z,13.63
2024-03-29T11:38:01.493Z,13.56
2024-03-29T11:39:01.587Z,13.49
2024-03-29T11:40:01.685Z,13.43
2024-03-29T11:41:01.792Z,13.36
2024-03-29T11:42:03.548Z,13.33
2024-03-29T11:43:03.618Z,13.26
2024-03-29T11:44:03.747Z,13.24
2024-03-29T11:45:02.236Z,13.24
2024-03-29T11:46:02.920Z,13.2
2024-03-29T11:47:01.419Z,13.18
2024-03-29T11:48:03.224Z,13.11
2024-03-29T11:49:01.630Z,13
2024-03-29T11:50:01.731Z,12.93
2024-03-29T11:51:01.847Z,12.87
2024-03-29T11:52:01.934Z,12.8
2024-03-29T11:53:03.704Z,12.75
2024-03-29T11:54:02.157Z,12.67
2024-03-29T11:55:03.919Z,12.64
2024-03-29T11:56:01.371Z,12.6
2024-03-29T11:57:03.118Z,12.57
2024-03-29T11:58:01.549Z,12.53
2024-03-29T11:59:03.313Z,12.52
2024-03-29T12:00:01.774Z,12.5
2024-03-29T12:01:03.518Z,12.46
2024-03-29T12:02:03.618Z,12.4
2024-03-29T12:03:02.090Z,12.36
2024-03-29T12:04:03.872Z,12.38
2024-03-29T12:05:02.925Z,12.42
2024-03-29T12:06:01.403Z,12.41
2024-03-29T12:07:01.482Z,12.4
2024-03-29T12:08:01.576Z,12.43
2024-03-29T12:09:01.736Z,12.47
2024-03-29T12:10:01.830Z,12.53
2024-03-29T12:11:01.932Z,12.59
2024-03-29T12:12:02.019Z,12.64
2024-03-29T12:13:02.110Z,12.71
2024-03-29T12:14:03.931Z,12.82
2024-03-29T12:15:03.043Z,12.91
2024-03-29T12:16:01.452Z,13
2024-03-29T12:17:03.224Z,13.1
2024-03-29T12:18:01.650Z,13.18
2024-03-29T12:19:03.385Z,13.24
2024-03-29T12:20:03.517Z,13.29
2024-03-29T12:21:01.961Z,13.33
2024-03-29T12:22:02.228Z,13.35
2024-03-29T12:23:03.800Z,13.36
2024-03-29T12:24:02.940Z,13.38
2024-03-29T12:25:03.063Z,13.39
2024-03-29T12:26:01.518Z,13.44
2024-03-29T12:27:01.587Z,13.49
2024-03-29T12:28:03.357Z,13.53
2024-03-29T12:29:03.440Z,13.58
2024-03-29T12:30:01.916Z,13.62
2024-03-29T12:31:02.035Z,13.65
2024-03-29T12:32:02.124Z,13.7
2024-03-29T12:33:02.222Z,13.76
2024-03-29T12:34:04.883Z,13.82
2024-03-29T12:35:01.434Z,13.85
2024-03-29T12:36:01.594Z,13.88
2024-03-29T12:37:03.280Z,13.91
2024-03-29T12:38:03.354Z,13.96
2024-03-29T12:39:01.836Z,13.99
2024-03-29T12:40:03.637Z,14.01
2024-03-29T12:41:02.090Z,14.03
2024-03-29T12:42:02.158Z,14.03
2024-03-29T12:43:02.917Z,14.03
2024-03-29T12:44:01.383Z,14.04
2024-03-29T12:45:03.161Z,14.04
2024-03-29T12:46:03.201Z,14.03
2024-03-29T12:47:01.677Z,14.01
2024-03-29T12:48:03.456Z,13.98
2024-03-29T12:49:03.565Z,13.93
2024-03-29T12:50:01.969Z,13.92
2024-03-29T12:51:02.124Z,13.9
2024-03-29T12:52:02.187Z,13.9
2024-03-29T12:53:01.519Z,13.9
2024-03-29T12:54:01.375Z,13.91
2024-03-29T12:55:01.607Z,13.93
2024-03-29T12:56:01.726Z,13.95
2024-03-29T12:57:01.839Z,13.95
2024-03-29T12:58:01.883Z,13.95
2024-03-29T12:59:01.934Z,13.95
2024-03-29T13:00:02.153Z,13.95
2024-03-29T13:01:03.812Z,13.98
2024-03-29T13:02:02.954Z,13.99
2024-03-29T13:03:01.354Z,14.01
2024-03-29T13:04:01.464Z,14.05
2024-03-29T13:05:01.594Z,14.09
2024-03-29T13:06:03.316Z,14.14
2024-03-29T13:07:03.471Z,14.2
2024-03-29T13:08:03.534Z,14.24
2024-03-29T13:09:03.617Z,14.29
2024-03-29T13:10:03.755Z,14.33
2024-03-29T13:11:03.870Z,14.36
2024-03-29T13:12:01.364Z,14.42
2024-03-29T13:13:01.469Z,14.43
2024-03-29T13:14:01.523Z,14.44
2024-03-29T13:15:01.724Z,14.48
2024-03-29T13:16:01.759Z,14.52
2024-03-29T13:17:01.922Z,14.58
2024-03-29T13:18:03.599Z,14.64
2024-03-29T13:19:03.711Z,14.7
2024-03-29T13:20:03.828Z,14.78
2024-03-29T13:21:01.300Z,14.92
2024-03-29T13:22:01.429Z,15.18
2024-03-29T13:23:03.169Z,15.52
2024-03-29T13:24:01.615Z,15.73
2024-03-29T13:25:03.362Z,15.97
2024-03-29T13:26:03.476Z,16.26
2024-03-29T13:27:01.941Z,16.56
2024-03-29T13:28:02.034Z,16.84
2024-03-29T13:29:02.127Z,17.07
2024-03-29T13:30:02.307Z,17.2
2024-03-29T13:31:01.337Z,17.19
2024-03-29T13:32:03.124Z,17.09
2024-03-29T13:33:01.554Z,16.95
2024-03-29T13:34:01.672Z,16.77
2024-03-29T13:35:03.400Z,16.6
2024-03-29T13:36:03.496Z,16.65
2024-03-29T13:37:01.980Z,16.74
2024-03-29T13:38:03.760Z,16.66
2024-03-29T13:39:02.400Z,16.69
2024-03-29T13:40:01.315Z,16.74
2024-03-29T13:41:01.381Z,16.82
2024-03-29T13:42:01.495Z,16.81
2024-03-29T13:43:01.629Z,16.77
2024-03-29T13:44:03.379Z,16.81
2024-03-29T13:45:01.812Z,16.96
2024-03-29T13:46:01.968Z,17.2
2024-03-29T13:47:03.718Z,17.48
2024-03-29T13:48:02.151Z,17.64
2024-03-29T13:49:02.200Z,17.72
2024-03-29T13:50:03.073Z,17.69
2024-03-29T13:51:01.466Z,17.49
2024-03-29T13:52:03.251Z,17.26
2024-03-29T13:53:03.333Z,17.08
2024-03-29T13:54:03.431Z,16.93
2024-03-29T13:55:03.551Z,16.8
2024-03-29T13:56:03.626Z,16.67
2024-03-29T13:57:02.141Z,16.56
2024-03-29T13:58:03.864Z,16.43
2024-03-29T13:59:01.305Z,16.34
2024-03-29T14:00:01.397Z,16.28
2024-03-29T14:01:03.137Z,16.21
2024-03-29T14:02:01.634Z,16.15
2024-03-29T14:03:03.380Z,16.13
2024-03-29T14:04:01.810Z,16.12
2024-03-29T14:05:01.941Z,16.11
2024-03-29T14:06:03.692Z,16.07
2024-03-29T14:07:02.129Z,16.04
2024-03-29T14:08:03.898Z,16.05
2024-03-29T14:09:02.952Z,16.04
2024-03-29T14:10:03.067Z,16.04
2024-03-29T14:11:01.562Z,16.03
2024-03-29T14:12:03.318Z,16.02
2024-03-29T14:13:03.386Z,16
2024-03-29T14:14:01.874Z,16
2024-03-29T14:15:03.635Z,16.02
2024-03-29T14:16:03.791Z,16.02
2024-03-29T14:17:02.216Z,16.01
2024-03-29T14:18:03.007Z,16
2024-03-29T14:19:03.035Z,15.99
2024-03-29T14:20:01.490Z,15.98
2024-03-29T14:21:03.236Z,15.97
2024-03-29T14:22:01.709Z,15.97
2024-03-29T14:23:01.791Z,15.99
2024-03-29T14:24:01.908Z,16.01
2024-03-29T14:25:02.022Z,16.05
2024-03-29T14:26:02.124Z,16.1
2024-03-29T14:27:04.713Z,16.13
2024-03-29T14:28:01.313Z,16.14
2024-03-29T14:29:01.407Z,16.13
2024-03-29T14:30:03.146Z,16.11
2024-03-29T14:31:01.631Z,16.11
2024-03-29T14:32:01.703Z,16.1
2024-03-29T14:33:04.844Z,16.08
2024-03-29T14:34:03.569Z,16.07
2024-03-29T14:35:03.764Z,16.06
2024-03-29T14:36:02.152Z,16.03
2024-03-29T14:37:03.962Z,16.01
2024-03-29T14:38:03.013Z,15.99
2024-03-29T14:39:03.134Z,15.99
2024-03-29T14:40:01.610Z,16
2024-03-29T14:41:01.680Z,16.01
2024-03-29T14:42:02.184Z,16.04
2024-03-29T14:43:01.897Z,16.07
2024-03-29T14:44:01.976Z,16.11
2024-03-29T14:45:02.193Z,16.15
2024-03-29T14:46:02.274Z,16.2
2024-03-29T14:47:01.312Z,16.32
2024-03-29T14:48:03.051Z,16.48
2024-03-29T14:49:01.508Z,16.61
2024-03-29T14:50:03.224Z,16.7
2024-03-29T14:51:03.358Z,16.69
2024-03-29T14:52:01.843Z,16.65
2024-03-29T14:53:03.567Z,16.61
2024-03-29T14:54:02.027Z,16.57
2024-03-29T14:55:03.762Z,16.52
2024-03-29T14:56:13.396Z,16.48
2024-03-29T14:57:02.970Z,16.42
2024-03-29T14:58:03.085Z,16.37
2024-03-29T14:59:01.545Z,16.31
2024-03-29T15:00:03.308Z,16.26
2024-03-29T15:01:03.450Z,16.26
2024-03-29T15:02:01.848Z,16.24
2024-03-29T15:03:01.965Z,16.22
2024-03-29T15:04:02.050Z,16.24
2024-03-29T15:05:02.160Z,16.26
2024-03-29T15:06:02.231Z,16.27
2024-03-29T15:07:01.355Z,16.29
2024-03-29T15:08:01.502Z,16.33
2024-03-29T15:09:03.188Z,16.4
2024-03-29T15:10:01.684Z,16.49
2024-03-29T15:11:03.365Z,16.6
2024-03-29T15:12:01.853Z,16.74
2024-03-29T15:14:03.707Z,16.99
2024-03-29T15:15:02.253Z,17
2024-03-29T15:17:01.378Z,16.9
2024-03-29T15:18:01.499Z,16.81
2024-03-29T15:19:01.559Z,16.76
2024-03-29T15:20:01.669Z,16.7
2024-03-29T15:21:01.804Z,16.62
2024-03-29T15:22:01.891Z,16.56
2024-03-29T15:23:01.963Z,16.55
2024-03-29T15:24:03.758Z,16.55
2024-03-29T15:25:04.244Z,16.56
2024-03-29T15:26:02.937Z,16.57
2024-03-29T15:27:01.404Z,16.56
2024-03-29T15:28:03.158Z,16.52
2024-03-29T15:29:03.280Z,16.48
2024-03-29T15:30:03.407Z,16.45
2024-03-29T15:31:05.026Z,16.41
2024-03-29T15:32:01.904Z,16.36
2024-03-29T15:33:03.699Z,16.31
2024-03-29T15:34:03.796Z,16.26
2024-03-29T15:35:02.250Z,16.24
2024-03-29T15:36:01.333Z,16.2
2024-03-29T15:37:05.080Z,16.17
2024-03-29T15:38:03.167Z,16.13
2024-03-29T15:39:01.653Z,16.1
2024-03-29T15:40:03.403Z,16.05
2024-03-29T15:41:03.507Z,16
2024-03-29T15:42:01.971Z,15.93
2024-03-29T15:43:02.105Z,15.88
2024-03-29T15:44:02.169Z,15.83
2024-03-29T15:45:01.286Z,15.82
2024-03-29T15:46:03.019Z,15.8
2024-03-29T15:47:01.504Z,15.75
2024-03-29T15:48:03.232Z,15.72
2024-03-29T15:49:01.687Z,15.7
2024-03-29T15:50:03.458Z,15.69
2024-03-29T15:51:03.553Z,15.68
2024-03-29T15:52:02.020Z,15.66
2024-03-29T15:53:02.124Z,15.66
2024-03-29T15:54:02.230Z,15.65
2024-03-29T15:55:02.964Z,15.63
2024-03-29T15:56:01.408Z,15.65
2024-03-29T15:57:01.580Z,15.65
2024-03-29T15:58:03.271Z,15.67
2024-03-29T15:59:03.368Z,15.67
2024-03-29T16:00:03.492Z,15.69
2024-03-29T16:01:01.941Z,15.69
2024-03-29T16:02:02.040Z,15.67
2024-03-29T16:03:03.824Z,15.65
2024-03-29T16:04:02.252Z,15.62
2024-03-29T16:05:02.981Z,15.6
2024-03-29T16:06:03.078Z,15.56
2024-03-29T16:07:01.567Z,15.53
2024-03-29T16:08:01.653Z,15.48
2024-03-29T16:09:01.783Z,15.45
2024-03-29T16:10:01.883Z,15.41
2024-03-29T16:11:01.990Z,15.39
2024-03-29T16:12:02.145Z,15.36
2024-03-29T16:13:03.934Z,15.32
2024-03-29T16:14:01.320Z,15.3
2024-03-29T16:15:03.021Z,15.25
2024-03-29T16:16:01.553Z,15.23
2024-03-29T16:17:03.283Z,15.22
2024-03-29T16:18:01.756Z,15.21
2024-03-29T16:19:01.822Z,15.17
2024-03-29T16:20:01.976Z,15.15
2024-03-29T16:21:02.003Z,15.12
2024-03-29T16:22:03.756Z,15.11
2024-03-29T16:23:02.209Z,15.1
2024-03-29T16:24:01.305Z,15.09
2024-03-29T16:25:03.067Z,15.1
2024-03-29T16:26:01.546Z,15.09
2024-03-29T16:27:03.245Z,15.1
2024-03-29T16:28:01.722Z,15.12
2024-03-29T16:29:01.794Z,15.14
2024-03-29T16:30:03.598Z,15.16
2024-03-29T16:31:02.020Z,15.22
2024-03-29T16:32:02.136Z,15.24
2024-03-29T16:33:02.223Z,15.22
2024-03-29T16:34:01.363Z,15.22
2024-03-29T16:35:03.237Z,15.21
2024-03-29T16:36:01.583Z,15.17
2024-03-29T16:37:03.278Z,15.15
2024-03-29T16:38:03.415Z,15.13
2024-03-29T16:39:01.885Z,15.11
2024-03-29T16:40:01.966Z,15.07
2024-03-29T16:41:03.724Z,15.06
2024-03-29T16:42:02.174Z,15.06
2024-03-29T16:43:01.263Z,15.04
2024-03-29T16:44:03.016Z,15.04
2024-03-29T16:45:03.103Z,15.03
2024-03-29T16:46:03.263Z,15.03
2024-03-29T16:47:01.688Z,15.01
2024-03-29T16:48:01.822Z,15
2024-03-29T16:49:01.904Z,14.98
2024-03-29T16:50:03.656Z,14.96
2024-03-29T16:51:02.098Z,14.93
2024-03-29T16:52:02.226Z,14.88
2024-03-29T16:53:02.974Z,14.85
2024-03-29T16:54:03.090Z,14.83
2024-03-29T16:55:01.523Z,14.82
2024-03-29T16:56:01.611Z,14.82
2024-03-29T16:57:01.735Z,14.79
2024-03-29T16:58:01.819Z,14.75
2024-03-29T16:59:03.596Z,14.72
2024-03-29T17:00:02.039Z,14.7
2024-03-29T17:01:03.784Z,14.66
2024-03-29T17:02:02.939Z,14.64
2024-03-29T17:03:01.361Z,14.62
2024-03-29T17:04:01.454Z,14.62
2024-03-29T17:05:01.593Z,14.6
2024-03-29T17:06:01.692Z,14.6
2024-03-29T17:07:03.451Z,14.58
2024-03-29T17:08:03.512Z,14.57
2024-03-29T17:09:03.637Z,14.54
2024-03-29T17:10:02.142Z,14.53
2024-03-29T17:11:02.191Z,14.51
2024-03-29T17:12:01.347Z,14.48
2024-03-29T17:13:01.408Z,14.47
2024-03-29T17:14:01.489Z,14.44
2024-03-29T17:15:03.237Z,14.44
2024-03-29T17:16:03.380Z,14.43
2024-03-29T17:17:01.881Z,14.4
2024-03-29T17:18:01.927Z,14.38
2024-03-29T17:19:03.680Z,14.34
2024-03-29T17:20:03.758Z,14.3
2024-03-29T17:21:02.240Z,14.29
2024-03-29T17:22:01.330Z,14.26
2024-03-29T17:23:03.065Z,14.22
2024-03-29T17:24:03.198Z,14.19
2024-03-29T17:25:01.616Z,14.17
2024-03-29T17:26:01.703Z,14.15
2024-03-29T17:27:01.857Z,14.14
2024-03-29T17:28:01.922Z,14.12
2024-03-29T17:29:03.639Z,14.11
2024-03-29T17:30:02.122Z,14.1
2024-03-29T17:31:04.004Z,14.09
2024-03-29T17:32:11.283Z,14.08
2024-03-29T17:33:03.138Z,14.08
2024-03-29T17:34:01.550Z,14.04
2024-03-29T17:35:03.317Z,14.03
2024-03-29T17:36:03.388Z,14.04
2024-03-29T17:37:01.898Z,14
2024-03-29T17:38:02.009Z,13.93
2024-03-29T17:39:02.088Z,13.85
2024-03-29T17:40:02.160Z,13.79
2024-03-29T17:41:02.921Z,13.73
2024-03-29T17:42:01.439Z,13.67
2024-03-29T17:43:01.490Z,13.6
2024-03-29T17:44:01.582Z,13.56
2024-03-29T17:45:01.739Z,13.58
2024-03-29T17:46:01.818Z,13.61
2024-03-29T17:47:03.614Z,13.61
2024-03-29T17:48:02.037Z,13.6
2024-03-29T17:49:03.789Z,13.58
2024-03-29T17:50:03.867Z,13.56
2024-03-29T17:51:01.343Z,13.53
2024-03-29T17:52:01.424Z,13.51
2024-03-29T17:53:01.598Z,13.49
2024-03-29T17:54:03.291Z,13.46
2024-03-29T17:55:03.408Z,13.47
2024-03-29T17:56:03.498Z,13.5
2024-03-29T17:57:03.634Z,13.51
2024-03-29T17:58:02.103Z,13.49
2024-03-29T17:59:02.203Z,13.44
2024-03-29T18:00:01.419Z,13.4
2024-03-29T18:01:01.403Z,13.37
2024-03-29T18:02:03.154Z,13.34
2024-03-29T18:03:01.611Z,13.33
2024-03-29T18:04:01.686Z,13.33
2024-03-29T18:05:03.429Z,13.33
2024-03-29T18:06:03.549Z,13.33
2024-03-29T18:07:02.032Z,13.32
2024-03-29T18:08:02.118Z,13.33
2024-03-29T18:09:02.179Z,13.3
2024-03-29T18:10:02.947Z,13.29
2024-03-29T18:11:01.429Z,13.3
2024-03-29T18:12:01.527Z,13.26
2024-03-29T18:13:01.643Z,13.24
2024-03-29T18:14:01.760Z,13.23
2024-03-29T18:15:01.847Z,13.23
2024-03-29T18:16:01.935Z,13.23
2024-03-29T18:17:03.709Z,13.22
2024-03-29T18:18:03.818Z,13.23
2024-03-29T18:19:01.279Z,13.23
2024-03-29T18:20:01.416Z,13.23
2024-03-29T18:21:01.449Z,13.23
2024-03-29T18:22:01.543Z,13.23
2024-03-29T18:23:03.271Z,13.22
2024-03-29T18:24:03.448Z,13.2
2024-03-29T18:25:03.590Z,13.17
2024-03-29T18:26:03.639Z,13.14
2024-03-29T18:27:02.127Z,13.1
2024-03-29T18:28:02.229Z,13.05
2024-03-29T18:29:04.740Z,13.03
2024-03-29T18:30:01.419Z,13.01
2024-03-29T18:31:01.523Z,12.99
2024-03-29T18:32:01.630Z,12.96
2024-03-29T18:33:01.741Z,12.93
2024-03-29T18:34:01.844Z,12.86
2024-03-29T18:35:03.641Z,12.78
2024-03-29T18:36:02.075Z,12.71
2024-03-29T18:37:02.151Z,12.67
2024-03-29T18:38:06.863Z,12.64
2024-03-29T18:39:01.374Z,12.62
2024-03-29T18:40:01.470Z,12.6
2024-03-29T18:41:01.578Z,12.6
2024-03-29T18:42:01.641Z,12.59
2024-03-29T18:43:03.428Z,12.59
2024-03-29T18:44:03.541Z,12.59
2024-03-29T18:45:01.978Z,12.59
2024-03-29T18:46:03.724Z,12.56
2024-03-29T18:47:02.223Z,12.52
2024-03-29T18:48:01.261Z,12.5
2024-03-29T18:49:01.391Z,12.48
2024-03-29T18:50:03.140Z,12.44
2024-03-29T18:51:01.604Z,12.38
2024-03-29T18:52:03.343Z,12.36
2024-03-29T18:53:03.413Z,12.35
2024-03-29T18:54:03.559Z,12.33
2024-03-29T18:55:03.643Z,12.32
2024-03-29T18:56:02.119Z,12.32
2024-03-29T18:57:03.870Z,12.31
2024-03-29T18:58:01.330Z,12.28
2024-03-29T18:59:01.434Z,12.23
2024-03-29T19:00:03.198Z,12.2
2024-03-29T19:01:03.254Z,12.19
2024-03-29T19:02:03.377Z,12.15
2024-03-29T19:03:03.451Z,12.13
2024-03-29T19:04:03.550Z,12.1
2024-03-29T19:05:02.033Z,12.05
2024-03-29T19:06:02.128Z,11.99
2024-03-29T19:07:02.265Z,11.97
2024-03-29T19:08:03.002Z,11.96
2024-03-29T19:09:01.488Z,11.93
2024-03-29T19:10:03.221Z,11.89
2024-03-29T19:11:03.300Z,11.83
2024-03-29T19:12:01.797Z,11.77
2024-03-29T19:13:03.560Z,11.72
2024-03-29T19:14:03.642Z,11.69
2024-03-29T19:15:03.720Z,11.63
2024-03-29T19:16:03.828Z,11.61
2024-03-29T19:17:02.868Z,11.61
2024-03-29T19:18:03.060Z,11.6
2024-03-29T19:19:03.147Z,11.57
2024-03-29T19:20:03.223Z,11.53
2024-03-29T19:21:01.716Z,11.49
2024-03-29T19:22:03.469Z,11.42
2024-03-29T19:23:01.946Z,11.33
2024-03-29T19:24:02.079Z,11.27
2024-03-29T19:25:02.156Z,11.22
2024-03-29T19:26:02.250Z,11.18
2024-03-29T19:27:02.999Z,11.18
2024-03-29T19:28:03.119Z,11.18
2024-03-29T19:29:01.622Z,11.19
2024-03-29T19:30:01.702Z,11.15
2024-03-29T19:31:01.764Z,11.11
2024-03-29T19:32:01.874Z,11.1
2024-03-29T19:33:01.995Z,11.1
2024-03-29T19:34:03.712Z,11.1
2024-03-29T19:35:03.808Z,11.08
2024-03-29T19:36:01.267Z,11.07
2024-03-29T19:37:03.052Z,11.03
2024-03-29T19:38:01.494Z,11
2024-03-29T19:39:02.291Z,10.95
2024-03-29T19:40:01.733Z,10.92
2024-03-29T19:41:01.826Z,10.89
2024-03-29T19:42:03.533Z,10.87
2024-03-29T19:43:02.003Z,10.84
2024-03-29T19:44:02.160Z,10.79
2024-03-29T19:45:02.247Z,10.77
2024-03-29T19:46:01.332Z,10.71
2024-03-29T19:47:03.079Z,10.64
2024-03-29T19:48:03.191Z,10.56
2024-03-29T19:49:03.272Z,10.51
2024-03-29T19:50:01.799Z,10.43
2024-03-29T19:51:03.497Z,10.4
2024-03-29T19:52:03.664Z,10.36
2024-03-29T19:53:02.098Z,10.31
2024-03-29T19:54:02.152Z,10.25
2024-03-29T19:55:01.284Z,10.22
2024-03-29T19:56:01.346Z,10.19
2024-03-29T19:57:01.490Z,10.18
2024-03-29T19:58:01.581Z,10.13
2024-03-29T19:59:01.691Z,10.1
2024-03-29T20:00:01.757Z,10.03
2024-03-29T20:01:01.919Z,9.98
2024-03-29T20:02:01.998Z,9.96
2024-03-29T20:03:02.125Z,9.94
2024-03-29T20:04:02.237Z,9.9
2024-03-29T20:05:01.332Z,9.88
2024-03-29T20:06:01.442Z,9.84
2024-03-29T20:07:01.552Z,9.79
2024-03-29T20:08:03.287Z,9.74
2024-03-29T20:09:03.563Z,9.68
2024-03-29T20:10:03.042Z,9.62
2024-03-29T20:11:01.984Z,9.6
2024-03-29T20:12:03.721Z,9.56
2024-03-29T20:13:03.820Z,9.52
2024-03-29T20:14:01.279Z,9.5
2024-03-29T20:15:01.435Z,9.5
2024-03-29T20:16:01.495Z,9.49
2024-03-29T20:17:03.243Z,9.47
2024-03-29T20:18:03.336Z,9.46
2024-03-29T20:19:01.820Z,9.42
2024-03-29T20:20:03.578Z,9.4
2024-03-29T20:21:02.031Z,9.37
2024-03-29T20:22:06.044Z,9.35
2024-03-29T20:23:02.232Z,9.31
2024-03-29T20:24:03.020Z,9.24
2024-03-29T20:25:03.099Z,9.18
2024-03-29T20:26:01.557Z,9.15
2024-03-29T20:27:01.651Z,9.12
2024-03-29T20:28:01.753Z,9.12
2024-03-29T20:29:01.880Z,9.09
2024-03-29T20:30:03.649Z,9.06
2024-03-29T20:31:02.069Z,9.06
2024-03-29T20:32:02.173Z,9.08
2024-03-29T20:33:02.913Z,9.11
2024-03-29T20:34:03.012Z,9.14
2024-03-29T20:35:01.499Z,9.11
2024-03-29T20:36:01.612Z,9.1
2024-03-29T20:37:03.346Z,9.08
2024-03-29T20:38:03.432Z,9.03
2024-03-29T20:39:01.905Z,9.05
2024-03-29T20:40:02.042Z,9.03
2024-03-29T20:41:03.772Z,8.95
2024-03-29T20:42:02.234Z,8.95
2024-03-29T20:43:01.327Z,8.94
2024-03-29T20:44:01.428Z,8.94
2024-03-29T20:45:01.529Z,8.94
2024-03-29T20:46:03.284Z,8.94
2024-03-29T20:47:01.756Z,8.94
2024-03-29T20:48:03.533Z,8.94
2024-03-29T20:49:01.927Z,8.94
2024-03-29T20:50:03.697Z,8.94
2024-03-29T20:51:03.836Z,8.94
2024-03-29T20:53:01.341Z,8.94
2024-03-29T20:54:03.055Z,8.9
2024-03-29T20:55:03.233Z,8.91
2024-03-29T20:56:03.456Z,8.93
2024-03-29T20:57:01.774Z,8.93
2024-03-29T20:58:01.874Z,8.94
2024-03-29T20:59:03.618Z,8.91
2024-03-29T21:00:02.099Z,8.87
2024-03-29T21:01:03.913Z,8.86
2024-03-29T21:02:01.307Z,8.85
2024-03-29T21:03:01.409Z,8.82
2024-03-29T21:04:01.610Z,8.82
2024-03-29T21:05:01.623Z,8.83
2024-03-29T21:06:01.709Z,8.82
2024-03-29T21:07:03.465Z,8.79
2024-03-29T21:08:01.932Z,8.77
2024-03-29T21:09:02.031Z,8.76
2024-03-29T21:10:03.823Z,8.76
2024-03-29T21:11:03.875Z,8.75
2024-03-29T21:12:01.369Z,8.74
2024-03-29T21:13:01.457Z,8.74
2024-03-29T21:14:03.200Z,8.74
2024-03-29T21:15:01.662Z,8.75
2024-03-29T21:16:03.404Z,8.73
2024-03-29T21:17:01.848Z,8.71
2024-03-29T21:18:01.997Z,8.67
2024-03-29T21:19:03.686Z,8.64
2024-03-29T21:20:03.809Z,8.62
2024-03-29T21:21:01.282Z,8.6
2024-03-29T21:22:03.007Z,8.6
2024-03-29T21:23:01.484Z,8.6
2024-03-29T21:24:03.213Z,8.57
2024-03-29T21:25:01.700Z,8.53
2024-03-29T21:26:01.821Z,8.52
2024-03-29T21:27:03.520Z,8.52
2024-03-29T21:28:02.023Z,8.51
2024-03-29T21:29:02.101Z,8.49
2024-03-29T21:30:03.873Z,8.47
2024-03-29T21:31:01.295Z,8.48
2024-03-29T21:32:03.064Z,8.46
2024-03-29T21:33:03.174Z,8.44
2024-03-29T21:34:01.622Z,8.43
2024-03-29T21:35:01.708Z,8.41
2024-03-29T21:36:01.830Z,8.35
2024-03-29T21:37:01.930Z,8.33
2024-03-29T21:38:03.702Z,8.33
2024-03-29T21:39:02.222Z,8.33
2024-03-29T21:40:01.246Z,8.32
2024-03-29T21:41:03.016Z,8.32
2024-03-29T21:42:03.145Z,8.31
2024-03-29T21:43:03.245Z,8.29
2024-03-29T21:44:03.379Z,8.3
2024-03-29T21:45:01.784Z,8.3
2024-03-29T21:46:01.873Z,8.28
2024-03-29T21:47:01.995Z,8.28
2024-03-29T21:48:03.744Z,8.27
2024-03-29T21:49:02.211Z,8.26
2024-03-29T21:50:02.946Z,8.24
2024-03-29T21:51:01.411Z,8.21
2024-03-29T21:52:01.546Z,8.18
2024-03-29T21:53:03.214Z,8.15
2024-03-29T21:54:01.751Z,8.11
2024-03-29T21:55:01.830Z,8.11
2024-03-29T21:56:01.968Z,8.08
2024-03-29T21:57:03.749Z,8.07
2024-03-29T21:58:04.939Z,8.05
2024-03-29T21:59:02.886Z,8.06
2024-03-29T22:00:03.043Z,8.05
2024-03-29T22:01:03.130Z,8.04
2024-03-29T22:02:01.579Z,8.03
2024-03-29T22:03:01.705Z,8.01
2024-03-29T22:04:03.432Z,8.01
2024-03-29T22:05:03.533Z,8
2024-03-29T22:06:01.996Z,7.98
2024-03-29T22:07:03.715Z,7.94
2024-03-29T22:08:03.875Z,7.91
2024-03-29T22:09:01.292Z,7.89
2024-03-29T22:10:03.044Z,7.89